Time;durP1;ratioP1;P1;durP2;ratioP2;P2;SDS_P1;SDS_P2;PMS_P1;PMS_P2;Temp;Humidity;BMP_temperature;BMP_pressure;BME280_temperature;BME280_humidity;BME280_pressure;Samples;Min_cycle;Max_cycle;Signal;HPM_P1;HPM_P2
2022/01/13 00:00:52;;;;;;;138.27;34.50;;;4.00;99.90;;;;;;4956662;28;20513;-77
2022/01/13 00:03:18;;;;;;;121.80;36.77;;;4.00;99.90;;;;;;4951052;28;20046;-77
2022/01/13 00:05:45;;;;;;;102.50;34.42;;;4.00;99.90;;;;;;4938688;28;20039;-87
2022/01/13 00:08:11;;;;;;;119.88;36.53;;;4.00;99.90;;;;;;4955894;28;20028;-78
2022/01/13 00:10:38;;;;;;;116.88;34.85;;;4.00;99.90;;;;;;4955982;28;20036;-77
2022/01/13 00:13:09;;;;;;;136.05;40.75;;;3.90;99.90;;;;;;4970582;28;20049;-79
2022/01/13 00:18:11;;;;;;;133.57;40.10;;;4.00;99.90;;;;;;4956695;28;20039;-79
2022/01/13 00:21:00;;;;;;;126.05;37.40;;;3.90;99.90;;;;;;4939463;28;20050;-78
2022/01/13 00:23:46;;;;;;;122.22;36.65;;;3.90;99.90;;;;;;4973967;28;20047;-78
2022/01/13 00:26:21;;;;;;;118.32;37.83;;;3.90;99.90;;;;;;4955431;28;20497;-77
2022/01/13 00:28:50;;;;;;;139.60;41.45;;;3.90;99.90;;;;;;4957497;28;20583;-78
2022/01/13 00:31:23;;;;;;;122.35;38.20;;;3.80;99.90;;;;;;4961622;28;20046;-77
2022/01/13 00:33:54;;;;;;;115.05;36.35;;;3.90;99.90;;;;;;4958815;28;20054;-78
2022/01/13 00:36:22;;;;;;;117.20;35.95;;;3.90;99.90;;;;;;4958104;28;20051;-78
2022/01/13 00:38:49;;;;;;;117.47;34.95;;;3.80;99.90;;;;;;4973381;28;20031;-78
2022/01/13 00:41:15;;;;;;;126.90;34.35;;;3.90;99.90;;;;;;4975035;28;20046;-78
2022/01/13 00:43:42;;;;;;;120.60;36.35;;;3.90;99.90;;;;;;4971397;28;20043;-78
2022/01/13 00:46:09;;;;;;;131.57;37.47;;;3.90;99.90;;;;;;4958764;28;20059;-78
2022/01/13 00:48:36;;;;;;;153.43;35.83;;;3.90;99.90;;;;;;4962076;28;20046;-78
2022/01/13 00:51:02;;;;;;;125.13;34.75;;;3.80;99.90;;;;;;4961424;28;20050;-78
2022/01/13 00:53:29;;;;;;;118.57;34.05;;;3.80;99.90;;;;;;4956739;28;20035;-78
2022/01/13 00:55:58;;;;;;;146.63;33.63;;;3.80;99.90;;;;;;4957900;28;20035;-78
2022/01/13 00:58:28;;;;;;;118.47;29.83;;;3.80;99.90;;;;;;4963208;28;20047;-78
2022/01/13 01:00:56;;;;;;;119.57;33.28;;;3.80;99.90;;;;;;4971417;28;20043;-78
2022/01/13 01:03:23;;;;;;;131.70;36.60;;;3.80;99.90;;;;;;4917409;28;20042;-78
2022/01/13 01:05:50;;;;;;;110.78;30.13;;;3.80;99.90;;;;;;4954024;28;20043;-78
2022/01/13 01:08:17;;;;;;;100.67;28.67;;;3.80;99.90;;;;;;4952635;28;20027;-78
2022/01/13 01:10:46;;;;;;;136.33;33.00;;;3.80;99.90;;;;;;4959184;28;20038;-78
2022/01/13 01:13:16;;;;;;;150.90;31.10;;;3.90;99.90;;;;;;4953853;28;20038;-78
2022/01/13 01:15:48;;;;;;;158.63;34.17;;;3.90;99.90;;;;;;4958152;28;20031;-78
2022/01/13 01:18:38;;;;;;;117.38;27.83;;;3.90;99.90;;;;;;4954273;28;20031;-78
2022/01/13 01:23:44;;;;;;;121.72;31.00;;;3.90;99.90;;;;;;4954220;28;20055;-78
2022/01/13 01:31:36;;;;;;;125.78;37.35;;;3.90;99.90;;;;;;4939200;28;20039;-78
2022/01/13 01:36:46;;;;;;;173.52;36.15;;;3.90;99.90;;;;;;4941291;28;20407;-78
2022/01/13 01:39:13;;;;;;;143.15;35.35;;;3.90;99.90;;;;;;4952907;28;20800;-78
2022/01/13 01:41:43;;;;;;;174.82;37.65;;;3.90;99.90;;;;;;4956423;28;20042;-79
2022/01/13 01:44:14;;;;;;;182.02;41.85;;;3.90;99.90;;;;;;4959043;28;20042;-78
2022/01/13 01:46:45;;;;;;;210.32;38.47;;;3.90;99.90;;;;;;4942209;28;20038;-78
2022/01/13 01:49:19;;;;;;;141.75;36.63;;;3.80;99.90;;;;;;4958293;28;20639;-78
2022/01/13 01:51:47;;;;;;;202.17;37.30;;;3.80;99.90;;;;;;4959941;28;20054;-78
2022/01/13 01:54:14;;;;;;;88.47;27.98;;;3.90;99.90;;;;;;4958503;28;20038;-78
2022/01/13 01:56:43;;;;;;;142.52;33.17;;;3.80;99.90;;;;;;4956605;28;20517;-78
2022/01/13 01:59:14;;;;;;;115.17;30.83;;;3.90;99.90;;;;;;4957033;28;20506;-78
2022/01/13 02:01:42;;;;;;;119.85;31.08;;;3.90;99.90;;;;;;4940379;28;20051;-78
2022/01/13 02:04:10;;;;;;;108.60;29.77;;;3.90;99.90;;;;;;4955473;28;20089;-78
2022/01/13 02:06:37;;;;;;;93.80;28.17;;;3.90;99.90;;;;;;4941695;28;20052;-78
2022/01/13 02:09:07;;;;;;;110.32;27.02;;;3.90;99.90;;;;;;4960945;28;20395;-78
2022/01/13 02:11:41;;;;;;;115.93;29.33;;;3.90;99.90;;;;;;4974939;28;20031;-78
2022/01/13 02:14:58;;;;;;;126.68;28.25;;;3.90;99.90;;;;;;4960570;28;20031;-78
2022/01/13 02:17:10;;;;;;;109.38;27.33;;;3.90;99.90;;;;;;4955753;28;20529;-78
2022/01/13 02:19:40;;;;;;;91.72;25.38;;;3.90;99.90;;;;;;4955169;28;20046;-78
2022/01/13 02:22:07;;;;;;;101.97;28.42;;;3.90;99.90;;;;;;4951570;28;20655;-78
2022/01/13 02:24:35;;;;;;;114.85;30.02;;;3.90;99.90;;;;;;4957914;28;20402;-78
2022/01/13 02:27:03;;;;;;;91.13;27.05;;;3.90;99.90;;;;;;4955861;28;20034;-78
2022/01/13 02:29:30;;;;;;;107.25;29.92;;;3.90;99.90;;;;;;4956204;28;20032;-79
2022/01/13 02:31:57;;;;;;;123.43;29.90;;;3.90;99.90;;;;;;4970012;28;20042;-78
2022/01/13 02:34:24;;;;;;;108.43;28.45;;;3.90;99.90;;;;;;4956219;28;20043;-79
2022/01/13 02:36:53;;;;;;;111.15;26.35;;;3.90;99.90;;;;;;4961056;28;20027;-79
2022/01/13 02:39:26;;;;;;;159.70;27.30;;;3.90;99.90;;;;;;4939095;28;20039;-78
2022/01/13 02:41:52;;;;;;;284.13;33.25;;;3.90;99.90;;;;;;4936326;28;20047;-78
2022/01/13 02:44:22;;;;;;;156.67;29.10;;;3.90;99.90;;;;;;4954065;28;20047;-78
2022/01/13 02:49:18;;;;;;;127.35;26.83;;;3.90;99.90;;;;;;4940409;28;20471;-78
2022/01/13 02:51:51;;;;;;;105.05;25.63;;;3.90;99.90;;;;;;4952855;28;20019;-78
2022/01/13 02:54:18;;;;;;;98.10;24.80;;;3.90;99.90;;;;;;4953460;28;20451;-79
2022/01/13 02:56:45;;;;;;;123.20;25.88;;;3.90;99.90;;;;;;4951146;28;20054;-78
2022/01/13 02:59:12;;;;;;;120.60;25.50;;;3.90;99.90;;;;;;4955967;28;20043;-78
2022/01/13 03:01:40;;;;;;;119.28;27.52;;;4.00;99.90;;;;;;4935103;28;20039;-79
2022/01/13 03:04:08;;;;;;;110.63;25.52;;;4.00;99.90;;;;;;4942080;28;20035;-78
2022/01/13 03:06:38;;;;;;;117.65;25.38;;;4.00;99.90;;;;;;4956583;28;20038;-78
2022/01/13 03:09:10;;;;;;;138.60;27.80;;;4.00;99.90;;;;;;4953238;28;20038;-78
2022/01/13 03:11:37;;;;;;;106.00;26.48;;;4.00;99.90;;;;;;4962449;28;20462;-79
2022/01/13 03:14:10;;;;;;;118.55;25.80;;;3.90;99.90;;;;;;4959146;28;20379;-79
2022/01/13 03:16:42;;;;;;;78.68;22.55;;;4.00;99.90;;;;;;4957550;28;20049;-79
2022/01/13 03:19:09;;;;;;;80.05;21.27;;;3.90;99.90;;;;;;4941882;28;20146;-79
2022/01/13 03:21:36;;;;;;;100.93;24.05;;;3.90;99.90;;;;;;4970311;28;20054;-79
2022/01/13 03:24:08;;;;;;;159.60;27.77;;;4.00;99.90;;;;;;4955272;28;20031;-79
2022/01/13 03:26:35;;;;;;;73.33;22.80;;;3.90;99.90;;;;;;4956629;28;20045;-79
2022/01/13 03:29:22;;;;;;;106.15;25.10;;;3.90;99.90;;;;;;4958381;28;20035;-78
2022/01/13 03:31:49;;;;;;;72.50;22.60;;;3.90;99.90;;;;;;4951428;28;20340;-79
2022/01/13 03:34:17;;;;;;;78.63;21.08;;;3.90;99.90;;;;;;4937715;28;20055;-79
2022/01/13 03:36:44;;;;;;;72.60;20.40;;;3.90;99.90;;;;;;4956739;28;20035;-79
2022/01/13 03:39:13;;;;;;;89.03;21.00;;;3.90;99.90;;;;;;4955003;28;20046;-79
2022/01/13 03:41:40;;;;;;;62.38;20.70;;;3.90;99.90;;;;;;4950886;28;20406;-79
2022/01/13 03:44:16;;;;;;;183.17;27.23;;;3.90;99.90;;;;;;4956104;28;20031;-79
2022/01/13 03:46:43;;;;;;;190.93;28.27;;;3.90;99.90;;;;;;4951975;28;20043;-79
2022/01/13 03:49:09;;;;;;;94.72;22.63;;;3.90;99.90;;;;;;4954263;28;20031;-78
2022/01/13 03:52:03;;;;;;;159.23;25.52;;;3.90;99.90;;;;;;4951857;28;20038;-79
2022/01/13 03:54:32;;;;;;;92.03;22.17;;;3.90;99.90;;;;;;4946240;28;20049;-79
2022/01/13 03:57:10;;;;;;;67.72;19.58;;;3.90;99.90;;;;;;4953652;28;20031;-79
2022/01/13 04:00:24;;;;;;;94.77;20.90;;;3.90;99.90;;;;;;4952247;28;20047;-79
2022/01/13 04:02:51;;;;;;;100.20;20.90;;;3.90;99.90;;;;;;4948617;28;20039;-79
2022/01/13 04:05:17;;;;;;;64.78;19.73;;;3.90;99.90;;;;;;4957269;28;20039;-79
2022/01/13 04:07:43;;;;;;;86.97;20.23;;;3.90;99.90;;;;;;4959239;28;20043;-79
2022/01/13 04:10:44;;;;;;;81.10;20.70;;;3.90;99.90;;;;;;4951880;28;20419;-79
2022/01/13 04:13:22;;;;;;;72.60;18.75;;;3.90;99.90;;;;;;4953159;28;20062;-79
2022/01/13 04:15:50;;;;;;;68.47;19.13;;;3.90;99.90;;;;;;4952796;28;20040;-79
2022/01/13 04:18:16;;;;;;;78.57;19.87;;;3.90;99.90;;;;;;4934939;28;20043;-79
2022/01/13 04:20:42;;;;;;;113.53;23.23;;;3.90;99.90;;;;;;4933254;28;20495;-79
2022/01/13 04:23:10;;;;;;;75.17;18.80;;;3.90;99.90;;;;;;4952950;28;20042;-79
2022/01/13 04:25:36;;;;;;;63.92;20.20;;;3.90;99.90;;;;;;4938886;28;20031;-79
2022/01/13 04:28:04;;;;;;;77.23;20.17;;;3.80;99.90;;;;;;4938712;29;20039;-79
2022/01/13 04:30:45;;;;;;;73.95;20.85;;;3.90;99.90;;;;;;4957129;28;20027;-78
2022/01/13 04:33:12;;;;;;;83.53;19.53;;;3.80;99.90;;;;;;4955052;28;20085;-78
2022/01/13 04:35:41;;;;;;;58.83;19.27;;;3.90;99.90;;;;;;4975333;28;20039;-78
2022/01/13 04:38:07;;;;;;;159.40;25.55;;;3.90;99.90;;;;;;4952577;28;20041;-78
2022/01/13 04:40:35;;;;;;;84.55;20.15;;;3.90;99.90;;;;;;4955872;28;20043;-78
2022/01/13 04:43:02;;;;;;;90.00;21.40;;;3.90;99.90;;;;;;4952992;28;20505;-79
2022/01/13 04:45:28;;;;;;;170.03;24.57;;;3.80;99.90;;;;;;4957564;28;20038;-79
2022/01/13 04:47:56;;;;;;;86.25;21.35;;;3.80;99.90;;;;;;4957624;28;20047;-79
2022/01/13 04:50:23;;;;;;;98.68;20.60;;;3.80;99.90;;;;;;4953388;28;20054;-78
2022/01/13 04:52:50;;;;;;;69.47;19.85;;;3.80;99.90;;;;;;4955671;28;20478;-79
2022/01/13 04:55:23;;;;;;;98.47;21.58;;;3.80;99.90;;;;;;4951477;28;20569;-79
2022/01/13 04:57:50;;;;;;;114.72;24.38;;;3.80;99.90;;;;;;4972889;28;20509;-78
2022/01/13 05:00:17;;;;;;;61.60;19.93;;;3.80;99.90;;;;;;4955032;28;20038;-78
2022/01/13 05:02:43;;;;;;;84.83;20.37;;;3.80;99.90;;;;;;4936115;28;20042;-79
2022/01/13 05:05:11;;;;;;;93.68;19.42;;;3.80;99.90;;;;;;4956661;28;20062;-79
2022/01/13 05:07:38;;;;;;;75.17;21.23;;;3.80;99.90;;;;;;4949192;28;20042;-79
2022/01/13 05:10:05;;;;;;;120.20;24.10;;;3.80;99.90;;;;;;4954326;28;20086;-79
2022/01/13 05:12:38;;;;;;;85.32;23.33;;;3.80;99.90;;;;;;4957593;28;20047;-79
2022/01/13 05:15:07;;;;;;;85.00;22.03;;;3.80;99.90;;;;;;4960037;28;20043;-78
2022/01/13 05:17:59;;;;;;;85.80;21.97;;;3.70;99.90;;;;;;4957822;28;20031;-79
2022/01/13 05:20:29;;;;;;;83.53;21.17;;;3.70;99.90;;;;;;4955523;28;20051;-79
2022/01/13 05:22:55;;;;;;;71.20;20.73;;;3.70;99.90;;;;;;4954318;28;20399;-78
2022/01/13 05:25:22;;;;;;;66.80;20.13;;;3.70;99.90;;;;;;4953879;28;20035;-86
2022/01/13 05:27:48;;;;;;;79.20;22.23;;;3.70;99.90;;;;;;4957229;28;20050;-79
2022/01/13 05:30:17;;;;;;;58.47;19.30;;;3.70;99.90;;;;;;4949221;28;20047;-78
2022/01/13 05:32:45;;;;;;;59.57;18.37;;;3.70;99.90;;;;;;4937913;28;20550;-80
2022/01/13 05:35:15;;;;;;;97.18;23.25;;;3.70;99.90;;;;;;4952453;28;20032;-79
2022/01/13 05:37:43;;;;;;;89.45;25.85;;;3.70;99.90;;;;;;4954840;28;20047;-80
2022/01/13 05:40:11;;;;;;;102.32;25.13;;;3.70;99.90;;;;;;4952706;28;20038;-80
2022/01/13 05:42:39;;;;;;;129.43;25.67;;;3.60;99.90;;;;;;4936726;28;20391;-80
2022/01/13 05:45:14;;;;;;;58.53;20.03;;;3.60;99.90;;;;;;4956558;28;20035;-80
2022/01/13 05:47:41;;;;;;;80.10;18.33;;;3.60;99.90;;;;;;4938660;28;20062;-80
2022/01/13 05:50:09;;;;;;;62.83;18.27;;;3.60;99.90;;;;;;4959771;28;20950;-79
2022/01/13 05:52:37;;;;;;;83.70;21.00;;;3.70;99.90;;;;;;4961422;28;20047;-80
2022/01/13 05:55:05;;;;;;;53.42;17.63;;;3.60;99.90;;;;;;4957107;28;20032;-80
2022/01/13 05:57:31;;;;;;;72.20;19.75;;;3.70;99.90;;;;;;4970882;28;20047;-79
2022/01/13 05:59:58;;;;;;;76.60;18.73;;;3.70;99.90;;;;;;4957923;28;20031;-80
2022/01/13 06:02:24;;;;;;;72.65;17.60;;;3.60;99.90;;;;;;4923912;28;20051;-80
2022/01/13 06:04:51;;;;;;;59.53;16.37;;;3.60;99.90;;;;;;4957256;28;20395;-79
2022/01/13 06:07:17;;;;;;;70.53;17.53;;;3.70;99.90;;;;;;4938577;28;20035;-77
2022/01/13 06:09:44;;;;;;;35.73;14.90;;;3.70;99.90;;;;;;4958979;28;20046;-79
2022/01/13 06:12:10;;;;;;;74.97;17.73;;;3.70;99.90;;;;;;4951084;28;20047;-79
2022/01/13 06:14:37;;;;;;;58.78;19.52;;;3.70;99.90;;;;;;4942454;28;20499;-79
2022/01/13 06:17:03;;;;;;;79.87;19.37;;;3.70;99.90;;;;;;4967303;28;20042;-79
2022/01/13 06:19:30;;;;;;;71.95;18.77;;;3.70;99.90;;;;;;4936607;28;20047;-79
2022/01/13 06:21:56;;;;;;;46.03;15.77;;;3.60;99.90;;;;;;4950098;28;20043;-79
2022/01/13 06:24:22;;;;;;;54.97;17.37;;;3.60;99.90;;;;;;4957085;28;20035;-79
2022/01/13 06:26:49;;;;;;;52.95;16.95;;;3.70;99.90;;;;;;4952724;28;20036;-79
2022/01/13 06:29:15;;;;;;;72.15;19.35;;;3.70;99.90;;;;;;4950036;28;20042;-79
2022/01/13 06:31:42;;;;;;;107.37;20.00;;;3.70;99.90;;;;;;4954629;28;20116;-79
2022/01/13 06:34:09;;;;;;;65.18;18.98;;;3.70;99.90;;;;;;4973687;28;20051;-79
2022/01/13 06:36:35;;;;;;;59.17;17.35;;;3.70;99.90;;;;;;4955823;28;20030;-79
2022/01/13 06:39:02;;;;;;;64.68;20.08;;;3.70;99.90;;;;;;4956035;28;20034;-79
2022/01/13 06:41:29;;;;;;;47.77;17.23;;;3.60;99.90;;;;;;4959311;28;20049;-79
2022/01/13 06:43:55;;;;;;;62.97;18.35;;;3.60;99.90;;;;;;4955750;28;20045;-83
2022/01/13 06:46:22;;;;;;;47.88;16.90;;;3.60;99.90;;;;;;4943017;28;20051;-79
2022/01/13 06:48:49;;;;;;;84.20;19.65;;;3.60;99.90;;;;;;4954751;28;20027;-77
2022/01/13 06:51:15;;;;;;;60.63;15.63;;;3.70;99.90;;;;;;4939046;29;20042;-81
2022/01/13 06:53:41;;;;;;;83.05;17.17;;;3.60;99.90;;;;;;4920061;28;20043;-78
2022/01/13 06:56:10;;;;;;;59.85;18.38;;;3.60;99.90;;;;;;4958238;28;20035;-79
2022/01/13 06:58:36;;;;;;;48.87;15.50;;;3.60;99.90;;;;;;4937309;28;20040;-79
2022/01/13 07:01:03;;;;;;;72.23;17.50;;;3.60;99.90;;;;;;4953583;28;20035;-79
2022/01/13 07:03:29;;;;;;;115.10;24.75;;;3.60;99.90;;;;;;4955138;28;20042;-79
2022/01/13 07:05:56;;;;;;;48.83;17.65;;;3.60;99.90;;;;;;4954099;28;20035;-78
2022/01/13 07:08:22;;;;;;;61.67;17.52;;;3.60;99.90;;;;;;4950859;28;20375;-79
2022/01/13 07:10:48;;;;;;;91.10;19.17;;;3.60;99.90;;;;;;4957833;28;20030;-79
2022/01/13 07:13:15;;;;;;;65.88;18.23;;;3.60;99.90;;;;;;4953148;28;20413;-79
2022/01/13 07:15:45;;;;;;;44.60;15.90;;;3.60;99.90;;;;;;4958496;28;20513;-79
2022/01/13 07:18:12;;;;;;;79.80;18.40;;;3.60;99.90;;;;;;4950671;28;20030;-79
2022/01/13 07:20:40;;;;;;;31.58;14.27;;;3.60;99.90;;;;;;4954790;28;20036;-79
2022/01/13 07:23:06;;;;;;;62.67;17.07;;;3.60;99.90;;;;;;4954136;28;20467;-79
2022/01/13 07:25:33;;;;;;;52.85;17.77;;;3.60;99.90;;;;;;4955409;28;20656;-79
2022/01/13 07:28:00;;;;;;;57.95;17.95;;;3.60;99.90;;;;;;4954345;28;20110;-79
2022/01/13 07:30:27;;;;;;;62.20;17.90;;;3.60;99.90;;;;;;4939397;28;20030;-79
2022/01/13 07:32:53;;;;;;;51.88;17.90;;;3.60;99.90;;;;;;4956505;28;20034;-79
2022/01/13 07:35:20;;;;;;;78.03;19.87;;;3.60;99.90;;;;;;4952439;28;20044;-79
2022/01/13 07:37:46;;;;;;;172.43;26.23;;;3.60;99.90;;;;;;4954613;28;20026;-79
2022/01/13 07:40:14;;;;;;;53.77;18.53;;;3.60;99.90;;;;;;4954207;28;20434;-79
2022/01/13 07:42:42;;;;;;;42.20;16.88;;;3.60;99.90;;;;;;4949355;28;20054;-79
2022/01/13 07:49:29;;;;;;;46.65;14.75;;;3.60;99.90;;;;;;5511123;23;20051;-74
2022/01/13 07:55:28;;;;;;;48.35;15.32;;;3.60;99.90;;;;;;5464873;23;20511;-78
2022/01/13 07:58:29;;;;;;;64.20;16.45;;;3.60;99.90;;;;;;5601926;23;20066;31
2022/01/13 08:00:55;;;;;;;58.33;17.08;;;3.70;99.90;;;;;;4853425;29;20158;-75
2022/01/13 08:03:21;;;;;;;56.13;18.45;;;3.70;99.90;;;;;;4857827;29;20029;-74
2022/01/13 08:05:47;;;;;;;53.53;16.77;;;3.70;99.90;;;;;;4859946;29;20041;-75
2022/01/13 08:08:13;;;;;;;46.47;14.98;;;3.70;99.90;;;;;;4842474;29;20036;-75
2022/01/13 08:10:40;;;;;;;58.67;15.63;;;3.70;99.90;;;;;;4857177;29;20065;-75
2022/01/13 08:13:06;;;;;;;52.00;17.42;;;3.80;99.90;;;;;;4857541;29;20038;-75
2022/01/13 08:15:35;;;;;;;34.50;13.88;;;3.80;99.90;;;;;;4858572;29;20033;-74
2022/01/13 08:20:46;;;;;;;42.20;15.57;;;3.80;99.90;;;;;;4858492;29;20041;-74
2022/01/13 08:23:12;;;;;;;43.42;15.85;;;3.80;99.90;;;;;;4842531;29;20030;-74
2022/01/13 08:25:39;;;;;;;50.67;14.83;;;3.90;99.90;;;;;;4855779;29;20050;-75
2022/01/13 08:28:05;;;;;;;47.70;14.95;;;3.90;99.90;;;;;;4855544;29;20045;-74
2022/01/13 08:30:32;;;;;;;53.22;16.25;;;3.90;99.90;;;;;;4855684;29;20037;-75
2022/01/13 08:32:59;;;;;;;58.22;16.17;;;3.90;99.90;;;;;;4845624;29;20044;-75
2022/01/13 08:35:25;;;;;;;49.65;14.98;;;3.90;99.90;;;;;;4861417;29;20034;-75
2022/01/13 08:37:52;;;;;;;47.58;15.52;;;3.90;99.90;;;;;;4858109;29;20041;-74
2022/01/13 08:40:18;;;;;;;66.55;15.00;;;3.90;99.90;;;;;;4858086;29;20045;-75
2022/01/13 08:42:44;;;;;;;40.97;15.95;;;3.90;99.90;;;;;;4856124;29;20053;-75
2022/01/13 08:45:12;;;;;;;42.17;16.38;;;3.90;99.90;;;;;;4841921;29;20036;-75
2022/01/13 08:47:39;;;;;;;44.08;17.13;;;3.90;99.90;;;;;;4858591;29;20037;-75
2022/01/13 08:50:07;;;;;;;41.45;13.68;;;3.90;99.90;;;;;;4843243;29;20042;-75
2022/01/13 08:52:41;;;;;;;46.27;16.03;;;3.90;99.90;;;;;;4861744;29;20575;-75
2022/01/13 08:55:08;;;;;;;43.13;15.55;;;3.90;99.90;;;;;;4873442;29;20607;-75
2022/01/13 08:57:35;;;;;;;42.42;15.15;;;3.80;99.90;;;;;;4875510;29;20394;-75
2022/01/13 09:00:03;;;;;;;48.47;15.55;;;3.90;99.90;;;;;;4846858;29;20532;-75
2022/01/13 09:02:33;;;;;;;42.30;14.65;;;3.90;99.90;;;;;;4841728;29;20046;-75
2022/01/13 09:05:01;;;;;;;33.35;13.63;;;3.90;99.90;;;;;;4840747;29;20045;-74
2022/01/13 09:07:28;;;;;;;44.17;13.98;;;3.90;99.90;;;;;;4842988;29;20504;-75
2022/01/13 09:09:55;;;;;;;48.03;15.80;;;4.00;99.90;;;;;;4842204;29;20054;-75
2022/01/13 09:12:22;;;;;;;72.93;16.97;;;4.00;99.90;;;;;;4839070;29;20046;-74
2022/01/13 09:14:50;;;;;;;56.15;17.08;;;4.00;99.90;;;;;;4840398;29;20029;-75
2022/01/13 09:17:22;;;;;;;68.82;17.02;;;4.00;99.90;;;;;;4839354;29;20038;-75
2022/01/13 09:19:49;;;;;;;35.05;14.40;;;4.00;99.90;;;;;;4838940;29;20045;-75
2022/01/13 09:22:16;;;;;;;32.13;13.00;;;3.90;99.90;;;;;;4840872;29;20041;-75
2022/01/13 09:24:42;;;;;;;44.85;15.00;;;4.00;99.90;;;;;;4840395;29;20049;-74
2022/01/13 09:27:08;;;;;;;81.47;18.40;;;4.00;99.90;;;;;;4840717;29;20034;-74
2022/01/13 09:29:35;;;;;;;39.33;15.55;;;4.00;99.90;;;;;;4840108;29;20045;-73
2022/01/13 09:32:02;;;;;;;43.78;14.27;;;4.00;99.90;;;;;;4840370;29;20037;-73
2022/01/13 09:34:28;;;;;;;34.58;15.35;;;4.00;99.90;;;;;;4848012;29;20057;-73
2022/01/13 09:36:54;;;;;;;43.20;15.70;;;4.00;99.90;;;;;;4841246;29;20481;-72
2022/01/13 09:39:21;;;;;;;41.60;13.50;;;4.10;99.90;;;;;;4841146;29;20034;-73
2022/01/13 09:41:50;;;;;;;77.63;17.42;;;4.10;99.90;;;;;;4839911;29;20049;-73
2022/01/13 09:44:17;;;;;;;34.25;12.57;;;4.10;99.90;;;;;;4841817;29;20022;-73
2022/01/13 09:46:45;;;;;;;28.35;12.32;;;4.10;99.90;;;;;;4839796;29;20041;-73
2022/01/13 09:49:11;;;;;;;34.55;12.00;;;4.10;99.90;;;;;;4839025;29;20046;-73
2022/01/13 09:51:44;;;;;;;39.20;14.13;;;4.20;99.90;;;;;;4839277;29;20046;-73
2022/01/13 09:54:12;;;;;;;38.53;14.23;;;4.10;99.90;;;;;;4839183;29;20044;-73
2022/01/13 09:56:39;;;;;;;38.72;12.38;;;4.20;99.90;;;;;;4841839;29;20022;-73
2022/01/13 09:59:06;;;;;;;41.72;13.20;;;4.20;99.90;;;;;;4839471;29;20062;-73
2022/01/13 10:01:32;;;;;;;38.93;13.13;;;4.20;99.90;;;;;;4840375;29;20038;-73
2022/01/13 10:03:59;;;;;;;34.15;13.05;;;4.20;99.90;;;;;;4841213;29;20042;-74
2022/01/13 10:06:25;;;;;;;42.60;14.13;;;4.20;99.90;;;;;;4825163;29;20034;-73
2022/01/13 10:08:57;;;;;;;62.35;16.05;;;4.20;99.90;;;;;;4839168;29;20050;-73
2022/01/13 10:11:38;;;;;;;52.45;15.65;;;4.20;99.90;;;;;;4841465;29;20065;-74
2022/01/13 10:14:10;;;;;;;51.63;16.35;;;4.30;99.90;;;;;;4840300;29;20458;-74
2022/01/13 10:16:43;;;;;;;53.22;15.23;;;4.30;99.90;;;;;;4840471;29;20038;-74
2022/01/13 10:19:24;;;;;;;34.70;15.25;;;4.30;99.90;;;;;;4839013;29;20354;-73
2022/01/13 10:21:56;;;;;;;44.00;14.07;;;4.30;99.90;;;;;;4839654;29;20050;-73
2022/01/13 10:24:28;;;;;;;30.57;13.37;;;4.30;99.90;;;;;;4838249;29;20478;-73
2022/01/13 10:27:08;;;;;;;26.17;12.40;;;4.30;99.90;;;;;;4824988;29;20545;-73
2022/01/13 10:29:35;;;;;;;31.75;12.80;;;4.40;99.90;;;;;;4838047;29;20029;-74
2022/01/13 10:32:03;;;;;;;34.42;14.18;;;4.50;99.90;;;;;;4822979;29;20038;-73
2022/01/13 10:34:30;;;;;;;35.88;13.90;;;4.50;99.90;;;;;;4842859;29;20477;-72
2022/01/13 10:37:01;;;;;;;35.75;14.77;;;4.50;99.90;;;;;;4839835;29;20034;-73
2022/01/13 10:39:50;;;;;;;36.53;14.85;;;4.50;99.90;;;;;;4822408;29;20488;-74
2022/01/13 10:45:05;;;;;;;32.70;15.55;;;4.60;99.90;;;;;;4837566;29;20048;-74
2022/01/13 10:47:31;;;;;;;40.97;15.77;;;4.50;99.90;;;;;;4839640;29;20430;-74
2022/01/13 10:50:12;;;;;;;44.13;15.90;;;4.50;99.90;;;;;;4841347;29;20041;-75
2022/01/13 10:52:40;;;;;;;28.15;12.45;;;4.60;99.90;;;;;;4835485;29;20049;-75
2022/01/13 10:55:19;;;;;;;53.50;16.17;;;4.60;99.90;;;;;;4838392;29;20037;-74
2022/01/13 10:57:47;;;;;;;39.10;14.98;;;4.50;99.90;;;;;;4841321;29;20041;-75
2022/01/13 11:00:16;;;;;;;76.30;17.90;;;4.50;99.90;;;;;;4839352;29;20382;-75
2022/01/13 11:02:47;;;;;;;50.75;16.60;;;4.50;99.90;;;;;;4837835;29;20346;-75
2022/01/13 11:05:13;;;;;;;43.50;15.57;;;4.60;99.90;;;;;;4837544;29;20541;-75
2022/01/13 11:07:41;;;;;;;37.30;14.03;;;4.60;99.90;;;;;;4822505;29;20042;-75
2022/01/13 11:10:08;;;;;;;64.82;15.40;;;4.50;99.90;;;;;;4839617;29;20410;-75
2022/01/13 11:12:36;;;;;;;27.98;13.60;;;4.60;99.90;;;;;;4838360;29;20034;-75
2022/01/13 11:15:06;;;;;;;30.27;13.32;;;4.60;99.90;;;;;;4840046;29;20056;-75
2022/01/13 11:17:35;;;;;;;62.70;15.82;;;4.60;99.90;;;;;;4839916;29;20517;-75
2022/01/13 11:20:05;;;;;;;34.53;15.07;;;4.70;99.90;;;;;;4838661;29;20045;-75
2022/01/13 11:22:35;;;;;;;42.35;15.60;;;4.70;99.90;;;;;;4838107;29;20042;-75
2022/01/13 11:25:03;;;;;;;44.67;17.30;;;4.70;99.90;;;;;;4838835;29;20045;-75
2022/01/13 11:27:30;;;;;;;50.85;16.92;;;4.70;99.90;;;;;;4840442;29;20037;-74
2022/01/13 11:29:57;;;;;;;51.45;18.08;;;4.70;99.90;;;;;;4838226;29;20501;-75
2022/01/13 11:32:23;;;;;;;49.40;17.80;;;4.70;99.90;;;;;;4822740;29;20037;-75
2022/01/13 11:34:51;;;;;;;30.10;15.10;;;4.70;99.90;;;;;;4837821;29;20061;-75
2022/01/13 11:37:18;;;;;;;32.22;14.07;;;4.80;99.90;;;;;;4842542;29;20030;-75
2022/01/13 11:39:45;;;;;;;36.15;16.02;;;4.80;99.90;;;;;;4837629;29;20030;-75
2022/01/13 11:42:14;;;;;;;83.32;19.85;;;4.80;99.90;;;;;;4839780;29;20049;-75
2022/01/13 11:44:41;;;;;;;47.55;15.25;;;4.80;99.90;;;;;;4836775;29;20042;-75
2022/01/13 11:47:26;;;;;;;34.53;15.27;;;4.80;99.90;;;;;;4838496;29;20046;-75
2022/01/13 11:50:04;;;;;;;83.25;19.50;;;4.80;99.90;;;;;;4839207;29;20045;-75
2022/01/13 11:52:42;;;;;;;37.75;16.75;;;4.80;99.90;;;;;;4838756;29;20054;-75
2022/01/13 11:55:23;;;;;;;32.70;15.13;;;4.80;99.90;;;;;;4835476;29;20038;-75
2022/01/13 11:57:50;;;;;;;47.22;16.20;;;4.80;99.90;;;;;;4837440;29;20053;-75
2022/01/13 12:00:21;;;;;;;35.95;15.07;;;4.80;99.90;;;;;;4839391;29;20159;-75
2022/01/13 12:02:48;;;;;;;43.17;15.20;;;4.80;99.90;;;;;;4841666;29;20038;-75
2022/01/13 12:05:18;;;;;;;52.00;16.88;;;4.80;99.90;;;;;;4825535;29;20489;-75
2022/01/13 12:08:02;;;;;;;51.25;17.58;;;4.80;99.90;;;;;;4835432;29;20429;-75
2022/01/13 12:10:35;;;;;;;26.65;13.95;;;4.80;99.90;;;;;;4835865;29;20037;-75
2022/01/13 12:13:33;;;;;;;39.20;15.27;;;4.70;99.90;;;;;;4836487;29;20033;-75
2022/01/13 12:16:00;;;;;;;41.95;16.73;;;4.70;99.90;;;;;;4846504;29;20045;-75
2022/01/13 12:18:49;;;;;;;37.03;15.13;;;4.70;99.90;;;;;;4837798;29;20044;-75
2022/01/13 12:21:40;;;;;;;47.10;17.63;;;4.70;99.90;;;;;;4838138;29;20065;-75
2022/01/13 12:24:07;;;;;;;41.20;15.30;;;4.70;99.90;;;;;;4827541;29;20036;-74
2022/01/13 12:26:33;;;;;;;50.97;15.77;;;4.70;99.90;;;;;;4845817;29;20034;-76
2022/01/13 12:29:21;;;;;;;41.10;16.35;;;4.70;99.90;;;;;;4829480;29;20053;-75
2022/01/13 12:32:01;;;;;;;37.65;15.98;;;4.70;99.90;;;;;;4843380;29;20042;-75
2022/01/13 12:34:27;;;;;;;66.65;16.02;;;4.70;99.90;;;;;;4846157;29;20164;-75
2022/01/13 12:36:55;;;;;;;39.38;14.98;;;4.70;99.90;;;;;;4843270;29;20038;-75
2022/01/13 12:39:22;;;;;;;48.03;16.40;;;4.70;99.90;;;;;;4844585;29;20053;-75
2022/01/13 12:42:00;;;;;;;46.08;14.68;;;4.70;99.90;;;;;;4827516;29;20033;-75
2022/01/13 12:47:13;;;;;;;39.22;14.43;;;4.70;99.90;;;;;;4844394;29;20065;-76
2022/01/13 12:49:39;;;;;;;54.03;17.25;;;4.70;99.90;;;;;;4844525;29;20042;-76
2022/01/13 12:52:06;;;;;;;40.88;16.77;;;4.70;99.90;;;;;;4845406;29;20444;-76
2022/01/13 12:54:33;;;;;;;50.65;15.25;;;4.60;99.90;;;;;;4846801;29;20026;-76
2022/01/13 12:57:05;;;;;;;32.08;13.70;;;4.60;99.90;;;;;;4843978;29;20038;-76
2022/01/13 12:59:32;;;;;;;27.85;13.55;;;4.50;99.90;;;;;;4826322;29;20070;-77
2022/01/13 13:02:01;;;;;;;52.85;16.88;;;4.60;99.90;;;;;;4844848;29;20049;-77
2022/01/13 13:04:30;;;;;;;40.85;15.98;;;4.60;99.90;;;;;;4841589;29;20034;-77
2022/01/13 13:06:57;;;;;;;32.45;15.25;;;4.60;99.90;;;;;;4844407;29;20045;-77
2022/01/13 13:09:26;;;;;;;33.70;14.95;;;4.60;99.90;;;;;;4845055;29;20034;-77
2022/01/13 13:12:01;;;;;;;39.85;14.45;;;4.50;99.90;;;;;;4827158;29;20038;-77
2022/01/13 13:17:36;;;;;;;43.15;16.15;;;4.60;99.90;;;;;;4843606;29;20033;-78
2022/01/13 13:20:05;;;;;;;30.65;15.23;;;4.60;99.90;;;;;;4844867;29;20524;-77